Time;durP1;ratioP1;P1;durP2;ratioP2;P2;SDS_P1;SDS_P2;PMS_P1;PMS_P2;Temp;Humidity;BMP_temperature;BMP_pressure;BME280_temperature;BME280_humidity;BME280_pressure;Samples;Min_cycle;Max_cycle;Signal;HPM_P1;HPM_P2
2021/06/13 00:01:53;;;;;;;6.70;4.60;;;14.50;1.00;;;;;;5044554;28;20448;-79
2021/06/13 00:04:20;;;;;;;8.90;4.30;;;14.50;1.00;;;;;;5043757;28;20455;-78
2021/06/13 00:06:46;;;;;;;4.97;3.60;;;14.40;1.00;;;;;;5048716;28;21246;-79
2021/06/13 00:09:12;;;;;;;9.50;3.93;;;14.40;1.00;;;;;;5047098;28;20517;-79
2021/06/13 00:11:38;;;;;;;7.47;4.00;;;14.30;1.00;;;;;;5044306;28;20451;-79
2021/06/13 00:14:05;;;;;;;6.73;3.57;;;14.40;1.00;;;;;;5045028;28;20468;-79
2021/06/13 00:16:33;;;;;;;6.63;3.90;;;14.30;1.00;;;;;;5051410;28;20468;-79
2021/06/13 00:18:59;;;;;;;8.90;3.93;;;14.30;1.00;;;;;;5044061;28;20504;-79
2021/06/13 00:21:25;;;;;;;7.40;3.50;;;14.30;1.00;;;;;;5049492;28;20422;-78
2021/06/13 00:23:51;;;;;;;6.83;3.13;;;14.20;1.00;;;;;;5057442;28;20448;-79
2021/06/13 00:26:17;;;;;;;6.07;3.60;;;14.20;1.00;;;;;;5048831;28;20472;-78
2021/06/13 00:28:43;;;;;;;8.13;4.00;;;14.20;1.00;;;;;;5043214;28;20945;-78
2021/06/13 00:31:10;;;;;;;5.33;3.80;;;14.20;1.00;;;;;;5042124;28;20476;-78
2021/06/13 00:33:37;;;;;;;6.70;3.60;;;14.10;1.00;;;;;;5058573;28;20579;-79
2021/06/13 00:36:04;;;;;;;6.30;4.20;;;14.10;1.00;;;;;;5035907;28;20464;-78
2021/06/13 00:38:31;;;;;;;6.87;3.60;;;14.10;1.00;;;;;;5046469;28;20449;-78
2021/06/13 00:40:57;;;;;;;4.90;3.63;;;14.10;1.00;;;;;;5035187;28;20466;-78
2021/06/13 00:43:23;;;;;;;10.20;4.60;;;14.00;1.00;;;;;;5048476;28;20987;-78
2021/06/13 00:45:49;;;;;;;5.17;3.33;;;14.00;1.00;;;;;;5047756;28;20463;-78
2021/06/13 00:48:16;;;;;;;7.33;4.13;;;14.00;1.00;;;;;;5042489;28;20536;-78
2021/06/13 00:50:46;;;;;;;6.57;4.03;;;13.90;1.00;;;;;;5040688;28;20458;-79
2021/06/13 00:53:12;;;;;;;5.73;4.00;;;14.00;1.00;;;;;;5047654;28;20451;-79
2021/06/13 00:55:40;;;;;;;10.10;4.50;;;13.90;1.00;;;;;;5044998;28;20464;-79
2021/06/13 00:58:12;;;;;;;4.93;3.67;;;13.90;1.00;;;;;;5045378;28;21193;-79
2021/06/13 01:00:39;;;;;;;7.80;3.97;;;13.90;1.00;;;;;;5038795;28;20474;-79
2021/06/13 01:03:06;;;;;;;7.77;3.87;;;13.90;1.00;;;;;;5039659;28;20433;-78
2021/06/13 01:05:33;;;;;;;5.17;3.63;;;13.80;1.00;;;;;;5042861;28;20468;-78
2021/06/13 01:08:13;;;;;;;6.30;3.13;;;13.80;1.00;;;;;;5046128;28;20479;-80
2021/06/13 01:10:59;;;;;;;5.13;3.60;;;13.80;1.00;;;;;;5037526;28;20479;-79
2021/06/13 01:13:32;;;;;;;7.33;3.87;;;13.80;1.00;;;;;;5040255;28;20500;-78
2021/06/13 01:16:04;;;;;;;10.83;4.43;;;13.70;1.00;;;;;;5084525;22;20469;-84
2021/06/13 01:18:36;;;;;;;6.87;3.60;;;13.70;1.00;;;;;;5074601;28;20459;-82
2021/06/13 01:21:06;;;;;;;4.60;3.10;;;13.70;1.00;;;;;;5066369;28;20531;-82
2021/06/13 01:24:02;;;;;;;6.50;3.40;;;13.70;1.00;;;;;;5083803;28;20415;-83
2021/06/13 01:26:54;;;;;;;4.80;3.07;;;13.70;1.00;;;;;;5050740;28;20488;-82
2021/06/13 01:29:25;;;;;;;3.90;3.40;;;13.60;1.00;;;;;;5043330;28;20582;-83
2021/06/13 01:31:54;;;;;;;6.97;3.70;;;13.60;1.00;;;;;;5061184;28;20444;-83
2021/06/13 01:34:26;;;;;;;10.63;4.10;;;13.60;1.00;;;;;;5066434;28;20513;-82
2021/06/13 01:36:54;;;;;;;8.83;3.37;;;13.50;1.00;;;;;;5063912;28;20562;-82
2021/06/13 01:39:24;;;;;;;6.33;3.60;;;13.50;1.00;;;;;;5059770;28;20455;-83
2021/06/13 01:41:51;;;;;;;6.50;3.53;;;13.50;1.00;;;;;;5071253;28;20439;-82
2021/06/13 01:44:18;;;;;;;5.63;2.90;;;13.50;1.00;;;;;;5066474;28;20404;-82
2021/06/13 01:46:49;;;;;;;6.57;3.83;;;13.40;1.00;;;;;;5068828;28;20419;-82
2021/06/13 01:49:16;;;;;;;6.20;4.10;;;13.40;1.00;;;;;;5066430;28;20436;-82
2021/06/13 01:51:43;;;;;;;8.03;3.53;;;13.40;1.00;;;;;;5067415;28;20538;-82
2021/06/13 01:54:11;;;;;;;6.20;3.33;;;13.40;1.00;;;;;;5077016;28;20814;-83
2021/06/13 01:56:42;;;;;;;6.47;3.57;;;13.30;1.00;;;;;;5065284;28;20484;-83
2021/06/13 01:59:10;;;;;;;7.27;4.20;;;13.30;1.00;;;;;;5064786;28;20692;-82
2021/06/13 02:01:37;;;;;;;9.43;3.73;;;13.30;1.00;;;;;;5047077;28;20534;-82
2021/06/13 02:04:06;;;;;;;4.53;3.80;;;13.30;1.00;;;;;;5062604;28;20527;-82
2021/06/13 02:06:35;;;;;;;8.00;3.60;;;13.30;1.00;;;;;;5063527;28;21063;-83
2021/06/13 02:09:05;;;;;;;4.70;3.40;;;13.30;1.00;;;;;;5047253;28;20456;-81
2021/06/13 02:11:35;;;;;;;6.90;3.47;;;13.30;1.00;;;;;;5074385;28;20469;-82
2021/06/13 02:14:02;;;;;;;7.93;3.50;;;13.30;1.00;;;;;;5075110;28;21199;-83
2021/06/13 02:16:30;;;;;;;7.37;3.37;;;13.30;1.00;;;;;;5052530;28;20474;-80
2021/06/13 02:18:57;;;;;;;6.30;3.40;;;13.30;1.00;;;;;;5070262;28;20435;-81
2021/06/13 02:21:27;;;;;;;6.63;3.33;;;13.20;1.00;;;;;;5076447;28;20448;-82
2021/06/13 02:23:55;;;;;;;5.27;3.60;;;13.20;1.00;;;;;;5069016;28;20441;-82
2021/06/13 02:26:21;;;;;;;6.33;3.53;;;13.10;1.00;;;;;;5060834;28;20463;-82
2021/06/13 02:28:53;;;;;;;6.80;4.00;;;13.10;1.00;;;;;;5058022;28;20459;-83
2021/06/13 02:31:24;;;;;;;9.50;4.97;;;13.20;1.00;;;;;;5059875;28;20456;-81
2021/06/13 02:33:51;;;;;;;8.03;3.30;;;13.10;1.00;;;;;;5058722;28;20439;-81
2021/06/13 02:36:18;;;;;;;14.47;4.10;;;13.20;1.00;;;;;;5065542;28;20528;-82
2021/06/13 02:38:45;;;;;;;8.57;3.70;;;13.10;1.00;;;;;;5066443;28;20444;-81
2021/06/13 02:41:12;;;;;;;7.13;3.50;;;13.10;1.00;;;;;;5064669;28;20250;-81
2021/06/13 02:43:38;;;;;;;7.50;3.87;;;13.10;1.00;;;;;;5060438;28;20543;-83
2021/06/13 02:46:05;;;;;;;4.50;3.83;;;13.00;1.00;;;;;;5064174;28;20465;-83
2021/06/13 02:48:31;;;;;;;6.33;3.03;;;13.00;1.00;;;;;;5037256;28;20514;-83
2021/06/13 02:50:58;;;;;;;5.87;3.50;;;13.00;1.00;;;;;;5056703;28;20554;-83
2021/06/13 02:53:30;;;;;;;8.73;4.32;;;12.90;1.00;;;;;;5067182;28;20452;-84
2021/06/13 02:56:12;;;;;;;5.90;4.00;;;12.90;1.00;;;;;;5067046;28;20222;-83
2021/06/13 02:58:42;;;;;;;6.93;3.30;;;12.90;1.00;;;;;;5064178;28;20902;-83
2021/06/13 03:01:11;;;;;;;6.33;4.10;;;12.90;1.00;;;;;;5046266;28;20224;-81
2021/06/13 03:03:39;;;;;;;6.87;3.67;;;12.80;1.00;;;;;;5053983;28;21201;-82
2021/06/13 03:06:09;;;;;;;7.03;4.37;;;12.80;1.00;;;;;;5045411;28;20500;-81
2021/06/13 03:08:36;;;;;;;5.07;3.47;;;12.80;1.00;;;;;;5063879;28;20561;-80
2021/06/13 03:11:06;;;;;;;7.83;4.80;;;12.80;1.00;;;;;;5044397;28;20232;-83
2021/06/13 03:13:34;;;;;;;7.77;4.03;;;12.70;1.00;;;;;;5076656;28;20405;-82
2021/06/13 03:16:01;;;;;;;8.33;3.43;;;12.80;1.00;;;;;;5087193;28;20460;-83
2021/06/13 03:18:30;;;;;;;6.50;3.37;;;12.70;1.00;;;;;;5094692;28;20406;-84
2021/06/13 03:20:57;;;;;;;5.23;3.10;;;12.70;1.00;;;;;;5088921;28;20400;-83
2021/06/13 03:23:26;;;;;;;5.97;3.23;;;12.70;1.00;;;;;;5082871;28;20463;-84
2021/06/13 03:25:54;;;;;;;7.13;4.40;;;12.60;1.00;;;;;;5083070;28;20411;-83
2021/06/13 03:28:24;;;;;;;5.13;3.20;;;12.60;1.00;;;;;;5085453;28;20419;-83
2021/06/13 03:30:52;;;;;;;5.80;3.27;;;12.70;1.00;;;;;;5082341;28;20518;-83
2021/06/13 03:33:19;;;;;;;6.20;4.00;;;12.70;1.00;;;;;;5068419;28;20440;-83
2021/06/13 03:35:46;;;;;;;4.50;3.03;;;12.70;1.00;;;;;;5071605;28;20456;-83
2021/06/13 03:38:14;;;;;;;7.70;3.80;;;12.70;1.00;;;;;;5064672;28;20455;-83
2021/06/13 03:40:42;;;;;;;8.77;4.57;;;12.60;1.00;;;;;;5061325;28;20494;-83
2021/06/13 03:43:09;;;;;;;7.53;4.10;;;12.60;1.00;;;;;;5061750;28;20462;-83
2021/06/13 03:45:38;;;;;;;5.17;3.33;;;12.60;1.00;;;;;;5067944;28;20461;-81
2021/06/13 03:48:06;;;;;;;8.23;4.25;;;12.60;1.00;;;;;;5066019;28;20425;-82
2021/06/13 03:50:34;;;;;;;6.33;3.63;;;12.60;1.00;;;;;;5069245;28;20213;-82
2021/06/13 03:53:02;;;;;;;7.40;3.70;;;12.60;1.00;;;;;;5063491;28;20445;-81
2021/06/13 03:55:29;;;;;;;9.97;3.53;;;12.60;1.00;;;;;;5066262;28;20444;-81
2021/06/13 03:57:57;;;;;;;5.90;3.93;;;12.60;1.00;;;;;;5067895;28;21219;-82
2021/06/13 04:00:26;;;;;;;7.83;4.13;;;12.70;1.00;;;;;;5068380;28;20421;-83
2021/06/13 04:02:55;;;;;;;7.93;4.40;;;12.70;1.00;;;;;;5078966;28;20439;-84
2021/06/13 04:05:24;;;;;;;8.43;3.90;;;12.80;1.00;;;;;;5064915;28;22076;-83
2021/06/13 04:07:51;;;;;;;6.93;4.07;;;12.90;1.00;;;;;;5065954;28;20523;-83
2021/06/13 04:10:19;;;;;;;6.40;3.43;;;13.00;1.00;;;;;;5065201;28;20479;-82
2021/06/13 04:12:47;;;;;;;7.77;4.43;;;13.00;1.00;;;;;;5065682;28;20438;-82
2021/06/13 04:15:16;;;;;;;5.13;3.90;;;13.00;1.00;;;;;;5070749;28;21257;-81
2021/06/13 04:17:44;;;;;;;7.67;3.67;;;13.00;1.00;;;;;;5063878;28;20467;-83
2021/06/13 04:20:14;;;;;;;6.77;4.20;;;13.10;1.00;;;;;;5060018;28;20448;-82
2021/06/13 04:22:43;;;;;;;10.43;4.23;;;13.10;1.00;;;;;;5072241;28;20432;-80
2021/06/13 04:25:12;;;;;;;9.40;4.40;;;13.30;1.00;;;;;;5071111;28;20431;-82
2021/06/13 04:27:40;;;;;;;7.47;4.00;;;13.30;1.00;;;;;;5055083;28;20454;-80
2021/06/13 04:30:09;;;;;;;6.33;3.47;;;13.20;1.00;;;;;;5073441;28;20448;-80
2021/06/13 04:32:37;;;;;;;6.57;3.77;;;13.20;1.00;;;;;;5081593;28;20466;-81
2021/06/13 04:35:04;;;;;;;7.77;3.90;;;13.30;1.00;;;;;;5073159;28;20428;-82
2021/06/13 04:37:33;;;;;;;10.40;3.80;;;13.40;1.00;;;;;;5046259;28;20405;-82
2021/06/13 04:40:02;;;;;;;7.53;3.10;;;13.50;1.00;;;;;;5065193;28;20473;-81
2021/06/13 04:42:30;;;;;;;7.70;3.83;;;13.50;1.00;;;;;;5063235;28;20471;-82
2021/06/13 04:44:58;;;;;;;7.60;3.57;;;13.60;1.00;;;;;;5044616;28;20483;-82
2021/06/13 04:47:24;;;;;;;5.27;3.23;;;13.60;1.00;;;;;;5046002;28;20539;-82
2021/06/13 04:49:54;;;;;;;6.23;3.67;;;13.70;1.00;;;;;;5049011;28;20439;-83
2021/06/13 04:52:24;;;;;;;6.63;4.00;;;13.70;1.00;;;;;;5084001;28;20447;-83
2021/06/13 04:55:08;;;;;;;5.43;3.53;;;13.70;1.00;;;;;;5079339;28;20443;-81
2021/06/13 04:57:50;;;;;;;6.40;4.40;;;13.70;1.00;;;;;;5085304;28;20419;-81
2021/06/13 05:00:17;;;;;;;4.87;3.00;;;13.70;1.00;;;;;;5089957;28;20434;-82
2021/06/13 05:02:46;;;;;;;6.47;3.30;;;13.70;1.00;;;;;;5091096;28;20460;-82
2021/06/13 05:05:15;;;;;;;6.73;3.43;;;13.60;1.00;;;;;;5078897;28;20525;-82
2021/06/13 05:07:41;;;;;;;6.80;3.60;;;13.60;1.00;;;;;;5083375;28;20400;-82
2021/06/13 05:10:11;;;;;;;7.00;3.30;;;13.60;1.00;;;;;;5089606;28;20458;-83
2021/06/13 05:12:49;;;;;;;7.80;4.20;;;13.70;1.00;;;;;;5092436;28;20404;-82
2021/06/13 05:15:16;;;;;;;7.90;4.53;;;13.60;1.00;;;;;;5089917;28;20468;-81
2021/06/13 05:17:44;;;;;;;7.40;3.20;;;13.70;1.00;;;;;;5080030;28;20467;-82
2021/06/13 05:20:12;;;;;;;6.17;2.67;;;13.70;1.00;;;;;;5081850;28;21089;-84
2021/06/13 05:22:56;;;;;;;6.17;4.10;;;13.80;1.00;;;;;;5083170;28;20445;-83
2021/06/13 05:25:27;;;;;;;6.00;3.13;;;13.80;1.00;;;;;;5080164;28;21474;-83
2021/06/13 05:27:55;;;;;;;8.80;3.70;;;13.90;1.00;;;;;;5080712;28;20464;-82
2021/06/13 05:30:22;;;;;;;6.50;3.50;;;13.90;1.00;;;;;;5079711;28;20448;-82
2021/06/13 05:32:49;;;;;;;8.27;5.27;;;13.90;1.00;;;;;;5061041;28;20428;-82
2021/06/13 05:35:16;;;;;;;10.80;4.67;;;13.90;1.00;;;;;;5067354;28;20459;-82
2021/06/13 05:37:43;;;;;;;6.13;3.13;;;13.90;1.00;;;;;;5083070;28;20407;-82
2021/06/13 05:40:11;;;;;;;8.30;3.63;;;14.00;1.00;;;;;;5095669;28;20412;-83
2021/06/13 05:42:40;;;;;;;9.43;4.03;;;14.00;1.00;;;;;;5085438;28;20384;-83
2021/06/13 05:45:09;;;;;;;8.30;3.10;;;14.00;1.00;;;;;;5080686;28;20431;-83
2021/06/13 05:47:35;;;;;;;5.00;3.27;;;14.10;1.00;;;;;;5085727;28;20396;-83
2021/06/13 05:50:03;;;;;;;9.93;3.83;;;14.10;1.00;;;;;;5061814;28;20470;-82
2021/06/13 05:52:30;;;;;;;10.90;4.60;;;14.10;1.00;;;;;;5063764;28;20439;-82
2021/06/13 05:54:57;;;;;;;6.60;3.80;;;14.20;1.00;;;;;;5068483;28;21168;-83
2021/06/13 05:57:29;;;;;;;8.63;3.70;;;14.30;1.00;;;;;;5068022;28;20450;-82
2021/06/13 06:00:01;;;;;;;9.20;3.40;;;14.30;1.00;;;;;;5064536;28;20443;-82
2021/06/13 06:02:28;;;;;;;8.17;3.87;;;14.40;1.00;;;;;;5070413;28;20435;-81
2021/06/13 06:04:54;;;;;;;7.63;3.63;;;14.50;1.00;;;;;;5064712;28;20460;-82
2021/06/13 06:07:21;;;;;;;5.87;3.23;;;14.50;1.00;;;;;;5065640;28;20452;-84
2021/06/13 06:09:48;;;;;;;8.17;5.43;;;14.50;1.00;;;;;;5073585;28;20435;-84
2021/06/13 06:12:15;;;;;;;8.53;3.13;;;14.50;1.00;;;;;;5052382;28;20475;-83
2021/06/13 06:14:42;;;;;;;10.13;4.00;;;14.50;1.00;;;;;;5065457;28;20489;-82
2021/06/13 06:17:10;;;;;;;8.67;3.70;;;14.50;1.00;;;;;;5067323;28;20439;-83
2021/06/13 06:19:38;;;;;;;7.60;3.47;;;14.60;1.00;;;;;;5049622;28;20435;-83
2021/06/13 06:22:05;;;;;;;6.43;4.33;;;14.70;1.00;;;;;;5058290;28;20440;-81
2021/06/13 06:24:32;;;;;;;7.83;3.20;;;14.80;1.00;;;;;;5068170;28;20439;-82
2021/06/13 06:27:00;;;;;;;10.23;3.67;;;14.80;1.00;;;;;;5069053;28;20471;-82
2021/06/13 06:29:28;;;;;;;5.27;3.40;;;14.80;1.00;;;;;;5084582;28;20447;-82
2021/06/13 06:31:55;;;;;;;7.33;3.43;;;14.60;1.00;;;;;;5064294;28;20436;-82
2021/06/13 06:34:23;;;;;;;6.53;3.50;;;14.70;1.00;;;;;;5068935;28;20514;-82
2021/06/13 06:36:51;;;;;;;5.40;3.23;;;14.80;1.00;;;;;;5066648;28;20528;-82
2021/06/13 06:39:17;;;;;;;5.00;2.80;;;14.80;1.00;;;;;;5071042;28;20481;-82
2021/06/13 06:41:44;;;;;;;8.53;3.27;;;14.80;1.00;;;;;;5066637;28;21113;-82
2021/06/13 06:44:12;;;;;;;7.23;3.30;;;14.80;1.00;;;;;;5066005;28;20464;-83
2021/06/13 06:46:39;;;;;;;6.83;3.07;;;14.90;1.00;;;;;;5090115;28;20467;-81
2021/06/13 06:49:06;;;;;;;7.87;4.87;;;15.00;1.00;;;;;;5068587;28;20456;-83
2021/06/13 06:51:35;;;;;;;9.70;3.80;;;15.10;1.00;;;;;;5068601;28;20439;-81
2021/06/13 06:54:02;;;;;;;8.97;4.00;;;15.10;1.00;;;;;;5045936;28;20516;-82
2021/06/13 06:56:29;;;;;;;7.00;3.50;;;15.10;1.00;;;;;;5069520;28;20448;-81
2021/06/13 06:58:57;;;;;;;6.77;3.73;;;15.10;1.00;;;;;;5069047;28;20527;-82
2021/06/13 07:01:24;;;;;;;7.20;3.37;;;15.20;1.00;;;;;;5067152;28;20923;-81
2021/06/13 07:03:51;;;;;;;4.93;3.23;;;15.40;1.00;;;;;;5084352;28;20515;-83
2021/06/13 07:06:18;;;;;;;6.30;3.00;;;15.40;1.00;;;;;;5070556;28;20421;-82
2021/06/13 07:08:46;;;;;;;7.37;3.50;;;15.40;1.00;;;;;;5073362;28;21120;-81
2021/06/13 07:11:14;;;;;;;6.43;3.60;;;15.40;1.00;;;;;;5071478;28;20399;-81
2021/06/13 07:13:41;;;;;;;10.53;3.70;;;15.50;1.00;;;;;;5073108;28;20460;-79
2021/06/13 07:16:08;;;;;;;5.30;2.87;;;15.50;1.00;;;;;;5068292;28;20923;-82
2021/06/13 07:18:36;;;;;;;6.50;3.20;;;15.70;1.00;;;;;;5049493;28;20754;-82
2021/06/13 07:21:03;;;;;;;7.13;3.50;;;15.90;1.00;;;;;;5068871;28;20436;-72
2021/06/13 07:23:30;;;;;;;5.90;3.30;;;16.10;1.00;;;;;;5064851;28;20456;-71
2021/06/13 07:25:58;;;;;;;4.67;3.20;;;16.30;1.00;;;;;;5073216;28;20703;-72
2021/06/13 07:28:25;;;;;;;7.60;3.17;;;16.40;1.00;;;;;;5070685;28;20443;-72
2021/06/13 07:30:52;;;;;;;5.97;3.50;;;16.50;1.00;;;;;;5071294;28;20492;-72
2021/06/13 07:33:18;;;;;;;6.50;3.33;;;16.70;1.00;;;;;;5071927;28;20452;-73
2021/06/13 07:35:45;;;;;;;5.43;3.00;;;16.90;1.00;;;;;;5070017;28;20471;-73
2021/06/13 07:38:12;;;;;;;8.37;3.67;;;16.90;1.00;;;;;;5074457;28;20551;-72
2021/06/13 07:40:39;;;;;;;4.93;2.90;;;17.10;1.00;;;;;;5069868;28;20466;-73
2021/06/13 07:43:07;;;;;;;6.73;3.00;;;17.20;1.00;;;;;;5075223;28;20451;-72
2021/06/13 07:45:34;;;;;;;4.00;2.80;;;17.20;1.00;;;;;;5065850;28;20450;-71
2021/06/13 07:48:00;;;;;;;5.70;2.97;;;16.90;1.00;;;;;;5069945;28;20539;-72
2021/06/13 07:50:27;;;;;;;5.80;2.90;;;16.60;1.00;;;;;;5068674;28;20471;-72
2021/06/13 07:52:54;;;;;;;5.97;3.10;;;16.50;1.00;;;;;;5064993;28;20453;-72
2021/06/13 07:55:21;;;;;;;6.80;2.50;;;16.50;1.00;;;;;;5079925;28;20443;-73
2021/06/13 07:57:49;;;;;;;5.40;2.77;;;16.60;1.00;;;;;;5083412;28;20485;-73
2021/06/13 08:00:20;;;;;;;4.70;2.87;;;16.60;1.00;;;;;;5085790;28;20459;-74
2021/06/13 08:02:47;;;;;;;5.87;3.00;;;16.40;1.00;;;;;;5078255;28;20467;-74
2021/06/13 08:05:16;;;;;;;5.97;2.80;;;16.60;1.00;;;;;;5065345;28;20410;-73
2021/06/13 08:07:43;;;;;;;5.70;2.70;;;16.60;1.00;;;;;;5062092;28;20467;-73
2021/06/13 08:10:11;;;;;;;5.33;2.80;;;16.40;1.00;;;;;;5076873;28;20456;-74
2021/06/13 08:12:38;;;;;;;5.80;3.50;;;16.30;1.00;;;;;;5070859;28;20960;-74
2021/06/13 08:15:07;;;;;;;5.30;2.50;;;16.30;1.00;;;;;;5067775;28;20420;-74
2021/06/13 08:17:35;;;;;;;8.30;3.40;;;16.40;1.00;;;;;;5067752;28;20457;-72
2021/06/13 08:20:02;;;;;;;5.10;2.77;;;16.60;1.00;;;;;;5062515;28;20436;-73
2021/06/13 08:22:29;;;;;;;5.30;3.07;;;16.70;1.00;;;;;;5054836;28;20455;-74
2021/06/13 08:24:58;;;;;;;10.23;3.63;;;16.80;1.00;;;;;;5064035;28;20495;-74
2021/06/13 08:27:25;;;;;;;9.33;2.97;;;16.90;1.00;;;;;;5067330;28;20488;-74
2021/06/13 08:29:51;;;;;;;5.00;2.80;;;16.80;1.00;;;;;;5065087;28;20460;-74
2021/06/13 08:32:18;;;;;;;4.80;2.77;;;16.90;1.00;;;;;;5061056;28;21367;-75
2021/06/13 08:34:46;;;;;;;5.77;3.10;;;17.00;1.00;;;;;;5065927;28;20959;-74
2021/06/13 08:37:13;;;;;;;8.13;2.50;;;17.10;1.00;;;;;;5066031;28;20471;-74
2021/06/13 08:39:40;;;;;;;10.50;3.60;;;17.10;1.00;;;;;;5069829;28;20889;-74
2021/06/13 08:42:07;;;;;;;5.27;2.77;;;17.30;1.00;;;;;;5059465;28;20463;-75
2021/06/13 08:44:34;;;;;;;4.77;2.57;;;17.40;1.00;;;;;;5069182;28;20477;-75
2021/06/13 08:47:02;;;;;;;4.27;2.50;;;17.60;1.00;;;;;;5063033;28;20543;-74
2021/06/13 08:49:31;;;;;;;7.20;2.67;;;17.60;1.00;;;;;;5068117;28;20561;-73
2021/06/13 08:51:59;;;;;;;8.03;2.97;;;17.60;1.00;;;;;;5063873;28;21235;-73
2021/06/13 08:54:26;;;;;;;7.30;3.00;;;17.60;1.00;;;;;;5067144;28;20547;-74
2021/06/13 08:56:52;;;;;;;5.40;2.43;;;17.40;1.00;;;;;;5071559;28;20559;-76
2021/06/13 08:59:19;;;;;;;5.00;2.80;;;17.20;1.00;;;;;;5070674;28;20442;-77
2021/06/13 09:01:45;;;;;;;5.57;3.00;;;17.10;1.00;;;;;;5071762;28;20541;-74
2021/06/13 09:04:12;;;;;;;6.43;3.20;;;16.70;1.00;;;;;;5069187;28;20460;-73
2021/06/13 09:06:39;;;;;;;8.53;3.47;;;16.60;1.00;;;;;;5047947;28;20997;-73
2021/06/13 09:09:19;;;;;;;7.30;3.07;;;16.60;1.00;;;;;;5068630;28;20460;-74
2021/06/13 09:11:59;;;;;;;7.93;3.57;;;16.50;1.00;;;;;;5067527;28;20463;-74
2021/06/13 09:14:26;;;;;;;8.23;3.70;;;16.40;1.00;;;;;;5064535;28;20455;-74
2021/06/13 09:16:54;;;;;;;8.50;3.90;;;16.40;1.00;;;;;;5063469;28;20483;-74
2021/06/13 09:19:21;;;;;;;7.93;3.50;;;16.30;1.00;;;;;;5064465;28;20484;-74
2021/06/13 09:21:48;;;;;;;5.30;3.00;;;16.30;1.00;;;;;;5062840;28;20502;-74
2021/06/13 09:24:21;;;;;;;7.50;3.50;;;16.30;1.00;;;;;;5062438;28;20452;-75
2021/06/13 09:26:48;;;;;;;7.00;3.70;;;16.40;1.00;;;;;;5062936;28;20448;-75
2021/06/13 09:29:15;;;;;;;5.93;3.77;;;16.30;1.00;;;;;;5047550;28;20423;-75
2021/06/13 09:31:42;;;;;;;6.23;3.80;;;16.40;1.00;;;;;;5065221;28;20511;-74
2021/06/13 09:34:15;;;;;;;7.53;3.70;;;16.50;1.00;;;;;;5067498;28;20449;-73
2021/06/13 09:36:42;;;;;;;8.70;3.33;;;16.60;1.00;;;;;;5062183;28;20432;-73
2021/06/13 09:39:11;;;;;;;5.93;3.70;;;16.50;1.00;;;;;;5054721;28;20532;-74
2021/06/13 09:41:40;;;;;;;7.77;3.60;;;16.40;1.00;;;;;;5063722;28;20572;-75
2021/06/13 09:44:09;;;;;;;5.63;3.63;;;16.10;1.00;;;;;;5051084;28;20478;-74
2021/06/13 09:46:38;;;;;;;12.07;4.60;;;15.60;1.00;;;;;;5054179;28;21051;-74
2021/06/13 09:49:10;;;;;;;8.07;3.93;;;15.30;1.00;;;;;;5053782;28;20459;-75
2021/06/13 09:51:40;;;;;;;5.63;3.87;;;15.20;1.00;;;;;;5055312;28;20479;-75
2021/06/13 09:54:07;;;;;;;11.10;4.70;;;15.10;1.00;;;;;;5058242;28;20434;-75
2021/06/13 09:56:35;;;;;;;8.43;4.40;;;15.20;1.00;;;;;;5059260;28;20458;-75
2021/06/13 09:59:06;;;;;;;4.60;3.20;;;15.30;1.00;;;;;;5056216;28;20420;-75
2021/06/13 10:01:39;;;;;;;7.27;4.27;;;15.50;1.00;;;;;;5058500;28;20455;-75
2021/06/13 10:04:08;;;;;;;7.37;3.77;;;15.60;1.00;;;;;;5062314;28;21071;-76
2021/06/13 10:06:37;;;;;;;6.80;3.63;;;15.70;1.00;;;;;;5055049;28;20431;-76
2021/06/13 10:09:06;;;;;;;6.13;4.10;;;16.00;1.00;;;;;;5057628;28;23312;-76
2021/06/13 10:11:36;;;;;;;5.87;4.17;;;16.30;1.00;;;;;;5060399;28;20483;-75
2021/06/13 10:14:06;;;;;;;5.10;3.13;;;16.60;1.00;;;;;;5059139;28;20435;-75
2021/06/13 10:16:40;;;;;;;6.67;4.13;;;17.00;1.00;;;;;;5043520;28;21172;-76
2021/06/13 10:19:13;;;;;;;5.50;3.77;;;17.40;1.00;;;;;;5061168;28;20440;-78
2021/06/13 10:21:46;;;;;;;7.27;3.47;;;18.30;1.00;;;;;;5064256;28;20466;-76
2021/06/13 10:24:15;;;;;;;6.90;3.03;;;19.10;1.00;;;;;;5059550;28;20429;-76
2021/06/13 10:26:45;;;;;;;5.13;3.17;;;19.10;1.00;;;;;;5070591;28;20483;-75
2021/06/13 10:29:15;;;;;;;9.17;4.47;;;18.70;1.00;;;;;;5079438;28;20456;-76
2021/06/13 10:31:43;;;;;;;6.87;3.93;;;18.20;1.00;;;;;;5072344;28;20482;-76
2021/06/13 10:34:10;;;;;;;7.47;3.67;;;18.00;1.00;;;;;;5080915;28;20429;-76
2021/06/13 10:36:41;;;;;;;7.63;3.57;;;17.90;1.00;;;;;;5080352;28;20442;-75
2021/06/13 10:39:09;;;;;;;4.07;3.20;;;17.80;1.00;;;;;;5079126;28;20415;-76
2021/06/13 10:41:36;;;;;;;5.93;3.70;;;17.80;1.00;;;;;;5073692;28;20531;-73
2021/06/13 10:44:06;;;;;;;6.87;3.20;;;17.80;1.00;;;;;;5065936;28;20445;-75
2021/06/13 10:46:36;;;;;;;6.47;3.70;;;17.80;1.00;;;;;;5062680;28;20457;-76
2021/06/13 10:49:04;;;;;;;3.87;2.77;;;17.90;1.00;;;;;;5060262;28;20454;-75
2021/06/13 10:51:42;;;;;;;7.20;3.63;;;18.00;1.00;;;;;;5060350;28;20483;-76
2021/06/13 10:54:27;;;;;;;7.07;3.90;;;18.10;1.00;;;;;;5062662;28;20422;-76
2021/06/13 10:56:56;;;;;;;4.07;2.87;;;18.30;1.00;;;;;;5061508;28;20413;-74
2021/06/13 10:59:24;;;;;;;7.77;3.20;;;18.30;1.00;;;;;;5059325;28;20548;-75
2021/06/13 11:02:09;;;;;;;6.27;3.10;;;18.30;1.00;;;;;;5060989;28;20476;-75
2021/06/13 11:04:45;;;;;;;5.63;3.33;;;18.30;1.00;;;;;;5046571;28;20628;-73
2021/06/13 11:07:12;;;;;;;5.80;4.00;;;18.00;1.00;;;;;;5071842;28;20465;-77
2021/06/13 11:10:15;;;;;;;10.20;3.80;;;17.90;1.00;;;;;;5079626;28;20973;-75
2021/06/13 11:12:46;;;;;;;5.60;3.37;;;17.90;1.00;;;;;;5064003;28;20563;-76
2021/06/13 11:15:15;;;;;;;5.87;3.93;;;17.70;1.00;;;;;;5070544;28;20541;-75
2021/06/13 11:17:58;;;;;;;4.23;3.40;;;17.70;1.00;;;;;;5069013;28;20454;-75
2021/06/13 11:20:47;;;;;;;5.50;3.43;;;17.70;1.00;;;;;;5070869;28;20452;-75
2021/06/13 11:23:42;;;;;;;6.10;3.80;;;17.60;1.00;;;;;;5065294;28;20473;-76
2021/06/13 11:26:31;;;;;;;6.00;4.10;;;17.60;1.00;;;;;;5064319;28;20444;-76
2021/06/13 11:28:57;;;;;;;5.07;4.13;;;17.50;1.00;;;;;;5064146;28;20449;-76
2021/06/13 11:31:25;;;;;;;4.60;3.70;;;17.50;1.00;;;;;;5067312;28;20444;-76
2021/06/13 11:34:01;;;;;;;6.23;4.27;;;17.70;1.00;;;;;;5070232;28;20551;-76
2021/06/13 11:36:31;;;;;;;6.40;4.73;;;17.90;1.00;;;;;;5066353;28;20444;-75
2021/06/13 11:39:21;;;;;;;6.10;4.00;;;18.10;1.00;;;;;;5069038;28;20492;-76
2021/06/13 11:41:49;;;;;;;5.63;3.70;;;18.50;1.00;;;;;;5066119;28;20455;-75
2021/06/13 11:44:39;;;;;;;8.00;4.30;;;18.60;1.00;;;;;;5068315;28;20453;-77
2021/06/13 11:47:33;;;;;;;9.20;4.33;;;18.90;1.00;;;;;;5061438;28;20445;-75
2021/06/13 11:50:04;;;;;;;7.63;3.50;;;19.20;1.00;;;;;;5067410;28;20474;-76
2021/06/13 11:52:54;;;;;;;5.90;4.53;;;19.50;1.00;;;;;;5066294;28;20450;-75
2021/06/13 11:55:40;;;;;;;6.73;4.37;;;19.60;1.00;;;;;;5063313;28;20481;-75
2021/06/13 11:58:12;;;;;;;7.00;4.47;;;19.70;1.00;;;;;;5063867;28;20478;-76
2021/06/13 12:00:40;;;;;;;5.97;4.40;;;19.70;1.00;;;;;;5067060;28;20444;-75
2021/06/13 12:03:07;;;;;;;7.90;4.40;;;19.80;1.00;;;;;;5068746;28;20455;-75
2021/06/13 12:05:38;;;;;;;9.00;5.10;;;20.00;1.00;;;;;;5066665;28;20440;-76
2021/06/13 12:08:05;;;;;;;6.80;4.30;;;20.30;1.00;;;;;;5059471;28;20527;-77
2021/06/13 12:10:34;;;;;;;6.77;3.80;;;20.60;1.00;;;;;;5058207;28;20526;-77
2021/06/13 12:13:08;;;;;;;7.03;4.37;;;21.20;1.00;;;;;;5064530;28;20469;-77
2021/06/13 12:15:35;;;;;;;7.23;3.50;;;21.80;1.00;;;;;;5058897;28;20464;-76
2021/06/13 12:18:03;;;;;;;8.80;4.27;;;22.70;1.00;;;;;;5061657;28;20988;-76
2021/06/13 12:20:30;;;;;;;5.03;4.20;;;22.50;1.00;;;;;;5067325;28;20412;-76
2021/06/13 12:23:04;;;;;;;4.57;3.70;;;22.20;1.00;;;;;;5069319;28;20456;-76
2021/06/13 12:28:16;;;;;;;4.47;3.90;;;22.40;1.00;;;;;;5067837;28;20424;-77
2021/06/13 12:30:43;;;;;;;7.20;4.43;;;22.30;1.00;;;;;;5070599;28;20478;-76
2021/06/13 12:33:12;;;;;;;6.23;4.00;;;22.20;1.00;;;;;;5072501;28;20535;-76
2021/06/13 12:35:41;;;;;;;5.23;3.70;;;22.10;1.00;;;;;;5066747;28;20472;-75
2021/06/13 12:38:12;;;;;;;5.60;4.20;;;22.10;1.00;;;;;;5068737;28;20427;-75
2021/06/13 12:40:42;;;;;;;10.23;4.23;;;22.50;1.00;;;;;;5067566;28;20421;-76
2021/06/13 12:43:10;;;;;;;6.33;3.90;;;23.20;1.00;;;;;;5065297;28;20454;-75
2021/06/13 12:45:38;;;;;;;6.53;4.70;;;23.70;1.00;;;;;;5062876;28;20524;-76
2021/06/13 12:48:08;;;;;;;5.27;4.17;;;24.30;1.00;;;;;;5068474;28;20496;-77
2021/06/13 12:50:37;;;;;;;5.87;4.20;;;24.40;1.00;;;;;;5072549;28;20463;-77
2021/06/13 12:53:06;;;;;;;4.90;4.13;;;24.30;1.00;;;;;;5063956;28;20411;-77
2021/06/13 12:55:38;;;;;;;5.23;4.10;;;23.60;1.00;;;;;;5063508;28;20528;-77
2021/06/13 12:58:09;;;;;;;7.00;5.03;;;23.30;1.00;;;;;;5063945;28;20447;-77
2021/06/13 13:00:36;;;;;;;6.10;4.10;;;23.40;1.00;;;;;;5064327;28;20447;-77
2021/06/13 13:03:07;;;;;;;17.60;12.40;;;23.30;1.00;;;;;;5065797;28;20515;-76
2021/06/13 13:05:34;;;;;;;6.33;4.30;;;23.40;1.00;;;;;;5060945;28;20521;-77
2021/06/13 13:08:15;;;;;;;6.80;4.50;;;24.50;1.00;;;;;;5065341;28;20442;-77
2021/06/13 13:10:54;;;;;;;5.43;4.30;;;25.80;1.00;;;;;;5062170;28;20463;-77